sensor_id;sensor_type;location;lat;lon;timestamp;pressure;altitude;pressure_sealevel;temperature;humidity
20228;BME280;12195;55.790;37.572;2023-04-30T00:01:39;100118.66;;;6.60;68.81
20228;BME280;12195;55.790;37.572;2023-04-30T00:04:11;100123.99;;;6.57;69.19
20228;BME280;12195;55.790;37.572;2023-04-30T00:06:43;100132.66;;;6.57;69.43
20228;BME280;12195;55.790;37.572;2023-04-30T00:09:16;100130.16;;;6.54;69.79
20228;BME280;12195;55.790;37.572;2023-04-30T00:11:48;100127.59;;;6.53;70.12
20228;BME280;12195;55.790;37.572;2023-04-30T00:14:20;100125.98;;;6.49;70.29
20228;BME280;12195;55.790;37.572;2023-04-30T00:16:52;100133.03;;;6.45;70.48
20228;BME280;12195;55.790;37.572;2023-04-30T00:19:24;100137.55;;;6.40;70.52
20228;BME280;12195;55.790;37.572;2023-04-30T00:21:56;100140.31;;;6.36;70.79
20228;BME280;12195;55.790;37.572;2023-04-30T00:24:30;100136.97;;;6.31;71.13
20228;BME280;12195;55.790;37.572;2023-04-30T00:27:02;100132.70;;;6.28;71.52
20228;BME280;12195;55.790;37.572;2023-04-30T00:29:34;100132.70;;;6.28;71.98
20228;BME280;12195;55.790;37.572;2023-04-30T00:32:07;100136.22;;;6.27;72.18
20228;BME280;12195;55.790;37.572;2023-04-30T00:34:39;100140.57;;;6.27;72.49
20228;BME280;12195;55.790;37.572;2023-04-30T00:37:12;100146.73;;;6.24;72.65
20228;BME280;12195;55.790;37.572;2023-04-30T00:39:44;100155.46;;;6.23;72.82
20228;BME280;12195;55.790;37.572;2023-04-30T00:42:16;100152.15;;;6.18;72.87
20228;BME280;12195;55.790;37.572;2023-04-30T00:44:48;100152.23;;;6.15;73.21
20228;BME280;12195;55.790;37.572;2023-04-30T00:47:20;100154.92;;;6.12;73.54
20228;BME280;12195;55.790;37.572;2023-04-30T00:49:52;100153.26;;;6.10;73.77
20228;BME280;12195;55.790;37.572;2023-04-30T00:52:26;100155.11;;;6.06;73.94
20228;BME280;12195;55.790;37.572;2023-04-30T00:54:58;100152.59;;;6.03;74.26
20228;BME280;12195;55.790;37.572;2023-04-30T00:57:32;100149.19;;;6.01;74.55
20228;BME280;12195;55.790;37.572;2023-04-30T01:00:05;100147.50;;;5.99;74.73
20228;BME280;12195;55.790;37.572;2023-04-30T01:02:40;100148.44;;;5.96;74.87
20228;BME280;12195;55.790;37.572;2023-04-30T01:05:12;100148.44;;;5.96;75.28
20228;BME280;12195;55.790;37.572;2023-04-30T01:07:44;100148.55;;;5.93;75.42
20228;BME280;12195;55.790;37.572;2023-04-30T01:10:16;100152.03;;;5.92;75.52
20228;BME280;12195;55.790;37.572;2023-04-30T01:13:05;100144.33;;;5.89;75.49
20228;BME280;12195;55.790;37.572;2023-04-30T01:15:34;100151.31;;;5.87;75.77
20228;BME280;12195;55.790;37.572;2023-04-30T01:18:17;100154.75;;;5.89;76.05
20228;BME280;12195;55.790;37.572;2023-04-30T01:20:58;100147.88;;;5.87;76.09
20228;BME280;12195;55.790;37.572;2023-04-30T01:23:41;100154.75;;;5.89;76.20
20228;BME280;12195;55.790;37.572;2023-04-30T01:29:07;100152.23;;;5.86;76.43
20228;BME280;12195;55.790;37.572;2023-04-30T01:31:42;100152.94;;;5.91;76.57
20228;BME280;12195;55.790;37.572;2023-04-30T01:34:15;100147.77;;;5.90;76.47
20228;BME280;12195;55.790;37.572;2023-04-30T01:39:47;100148.80;;;5.84;76.58
20228;BME280;12195;55.790;37.572;2023-04-30T01:42:27;100154.08;;;5.83;76.72
20228;BME280;12195;55.790;37.572;2023-04-30T01:48:02;100155.06;;;5.77;76.85
20228;BME280;12195;55.790;37.572;2023-04-30T01:53:16;100150.69;;;5.77;77.45
20228;BME280;12195;55.790;37.572;2023-04-30T01:55:56;100152.42;;;5.78;77.64
20228;BME280;12195;55.790;37.572;2023-04-30T01:58:24;100153.25;;;5.79;77.58
20228;BME280;12195;55.790;37.572;2023-04-30T02:00:57;100163.67;;;5.79;77.63
20228;BME280;12195;55.790;37.572;2023-04-30T02:03:31;100161.03;;;5.82;77.83
20228;BME280;12195;55.790;37.572;2023-04-30T02:06:04;100155.78;;;5.84;77.93
20228;BME280;12195;55.790;37.572;2023-04-30T02:08:36;100144.41;;;5.86;77.88
20228;BME280;12195;55.790;37.572;2023-04-30T02:11:08;100154.64;;;5.92;77.89
20228;BME280;12195;55.790;37.572;2023-04-30T02:13:41;100157.17;;;5.95;77.83
20228;BME280;12195;55.790;37.572;2023-04-30T02:16:13;100146.70;;;5.97;77.69
20228;BME280;12195;55.790;37.572;2023-04-30T02:18:46;100137.86;;;6.02;77.57
20228;BME280;12195;55.790;37.572;2023-04-30T02:21:18;100139.44;;;6.08;77.86
20228;BME280;12195;55.790;37.572;2023-04-30T02:23:50;100140.10;;;6.14;77.90
20228;BME280;12195;55.790;37.572;2023-04-30T02:26:22;100134.69;;;6.20;77.81
20228;BME280;12195;55.790;37.572;2023-04-30T02:28:56;100132.79;;;6.25;77.40
20228;BME280;12195;55.790;37.572;2023-04-30T02:31:28;100134.31;;;6.32;77.29
20228;BME280;12195;55.790;37.572;2023-04-30T02:34:01;100139.32;;;6.40;77.19
20228;BME280;12195;55.790;37.572;2023-04-30T02:36:33;100126.94;;;6.46;76.85
20228;BME280;12195;55.790;37.572;2023-04-30T02:39:06;100124.95;;;6.54;76.57
20228;BME280;12195;55.790;37.572;2023-04-30T02:41:39;100121.22;;;6.61;76.33
20228;BME280;12195;55.790;37.572;2023-04-30T02:44:11;100122.60;;;6.73;76.17
20228;BME280;12195;55.790;37.572;2023-04-30T02:46:43;100115.37;;;6.81;75.64
20228;BME280;12195;55.790;37.572;2023-04-30T02:49:16;100101.10;;;6.91;75.14
20228;BME280;12195;55.790;37.572;2023-04-30T02:51:48;100112.09;;;7.00;74.67
20228;BME280;12195;55.790;37.572;2023-04-30T02:54:20;100103.03;;;7.10;74.09
20228;BME280;12195;55.790;37.572;2023-04-30T02:56:52;100111.36;;;7.21;73.63
20228;BME280;12195;55.790;37.572;2023-04-30T02:59:25;100100.59;;;7.30;72.96
20228;BME280;12195;55.790;37.572;2023-04-30T03:01:57;100104.64;;;7.39;72.53
20228;BME280;12195;55.790;37.572;2023-04-30T03:04:29;100096.53;;;7.46;72.08
20228;BME280;12195;55.790;37.572;2023-04-30T03:07:01;100104.02;;;7.55;71.56
20228;BME280;12195;55.790;37.572;2023-04-30T03:09:35;100099.43;;;7.62;71.25
20228;BME280;12195;55.790;37.572;2023-04-30T03:12:07;100104.39;;;7.69;70.83
20228;BME280;12195;55.790;37.572;2023-04-30T03:14:40;100108.47;;;7.76;70.19
20228;BME280;12195;55.790;37.572;2023-04-30T03:17:12;100104.73;;;7.83;69.90
20228;BME280;12195;55.790;37.572;2023-04-30T03:19:44;100102.73;;;7.90;69.48
20228;BME280;12195;55.790;37.572;2023-04-30T03:22:16;100105.86;;;7.99;68.96
20228;BME280;12195;55.790;37.572;2023-04-30T03:24:52;100101.19;;;8.07;68.67
20228;BME280;12195;55.790;37.572;2023-04-30T03:27:25;100102.59;;;8.16;68.14
20228;BME280;12195;55.790;37.572;2023-04-30T03:29:57;100094.44;;;8.25;68.13
20228;BME280;12195;55.790;37.572;2023-04-30T03:32:32;100095.00;;;8.33;67.93
20228;BME280;12195;55.790;37.572;2023-04-30T03:35:05;100085.91;;;8.41;67.39
20228;BME280;12195;55.790;37.572;2023-04-30T03:37:37;100093.39;;;8.50;66.86
20228;BME280;12195;55.790;37.572;2023-04-30T03:40:10;100093.88;;;8.60;66.17
20228;BME280;12195;55.790;37.572;2023-04-30T03:42:43;100082.20;;;8.68;65.46
20228;BME280;12195;55.790;37.572;2023-04-30T03:45:17;100069.64;;;8.76;64.81
20228;BME280;12195;55.790;37.572;2023-04-30T03:47:50;100071.93;;;8.84;64.29
20228;BME280;12195;55.790;37.572;2023-04-30T03:50:23;100072.52;;;8.90;64.12
20228;BME280;12195;55.790;37.572;2023-04-30T03:52:55;100070.44;;;8.98;63.52
20228;BME280;12195;55.790;37.572;2023-04-30T03:55:27;100070.96;;;9.06;63.06
20228;BME280;12195;55.790;37.572;2023-04-30T03:58:00;100073.24;;;9.14;62.71
20228;BME280;12195;55.790;37.572;2023-04-30T04:00:32;100070.44;;;9.18;62.39
20228;BME280;12195;55.790;37.572;2023-04-30T04:03:04;100069.20;;;9.27;62.32
20228;BME280;12195;55.790;37.572;2023-04-30T04:05:37;100075.80;;;9.35;62.08
20228;BME280;12195;55.790;37.572;2023-04-30T04:08:09;100066.75;;;9.42;61.30
20228;BME280;12195;55.790;37.572;2023-04-30T04:10:42;100066.47;;;9.48;60.79
20228;BME280;12195;55.790;37.572;2023-04-30T04:13:14;100069.53;;;9.58;60.60
20228;BME280;12195;55.790;37.572;2023-04-30T04:15:47;100066.49;;;9.67;60.47
20228;BME280;12195;55.790;37.572;2023-04-30T04:18:19;100062.48;;;9.78;60.36
20228;BME280;12195;55.790;37.572;2023-04-30T04:20:51;100065.44;;;9.89;60.40
20228;BME280;12195;55.790;37.572;2023-04-30T04:23:23;100071.05;;;10.00;59.74
20228;BME280;12195;55.790;37.572;2023-04-30T04:25:56;100059.39;;;10.07;58.98
20228;BME280;12195;55.790;37.572;2023-04-30T04:28:28;100059.95;;;10.14;58.61
20228;BME280;12195;55.790;37.572;2023-04-30T04:31:01;100054.40;;;10.20;58.48
20228;BME280;12195;55.790;37.572;2023-04-30T04:33:33;100056.81;;;10.24;57.78
20228;BME280;12195;55.790;37.572;2023-04-30T04:36:07;100052.19;;;10.29;57.48
20228;BME280;12195;55.790;37.572;2023-04-30T04:38:39;100053.75;;;10.33;57.04
20228;BME280;12195;55.790;37.572;2023-04-30T04:41:12;100054.37;;;10.38;57.14
20228;BME280;12195;55.790;37.572;2023-04-30T04:43:44;100041.03;;;10.43;56.73
20228;BME280;12195;55.790;37.572;2023-04-30T04:46:16;100035.47;;;10.49;56.41
20228;BME280;12195;55.790;37.572;2023-04-30T04:48:49;100038.57;;;10.57;55.82
20228;BME280;12195;55.790;37.572;2023-04-30T04:51:21;100040.66;;;10.67;55.84
20228;BME280;12195;55.790;37.572;2023-04-30T04:53:54;100034.73;;;10.81;55.06
20228;BME280;12195;55.790;37.572;2023-04-30T04:56:26;100034.90;;;10.95;54.69
20228;BME280;12195;55.790;37.572;2023-04-30T04:58:58;100031.39;;;11.12;53.88
20228;BME280;12195;55.790;37.572;2023-04-30T05:01:31;100039.17;;;11.30;53.48
20228;BME280;12195;55.790;37.572;2023-04-30T05:04:03;100041.69;;;11.49;52.99
20228;BME280;12195;55.790;37.572;2023-04-30T05:06:35;100045.23;;;11.65;52.96
20228;BME280;12195;55.790;37.572;2023-04-30T05:09:08;100046.86;;;11.83;52.58
20228;BME280;12195;55.790;37.572;2023-04-30T05:11:40;100040.77;;;11.98;51.60
20228;BME280;12195;55.790;37.572;2023-04-30T05:14:14;100047.99;;;12.10;50.90
20228;BME280;12195;55.790;37.572;2023-04-30T05:16:46;100042.05;;;12.22;50.94
20228;BME280;12195;55.790;37.572;2023-04-30T05:19:19;100044.94;;;12.33;50.47
20228;BME280;12195;55.790;37.572;2023-04-30T05:21:52;100037.17;;;12.45;50.19
20228;BME280;12195;55.790;37.572;2023-04-30T05:24:24;100031.58;;;12.51;49.72
20228;BME280;12195;55.790;37.572;2023-04-30T05:26:56;100035.45;;;12.60;49.47
20228;BME280;12195;55.790;37.572;2023-04-30T05:29:29;100030.67;;;12.66;49.29
20228;BME280;12195;55.790;37.572;2023-04-30T05:32:01;100030.05;;;12.77;49.75
20228;BME280;12195;55.790;37.572;2023-04-30T05:34:34;100026.13;;;12.84;49.45
20228;BME280;12195;55.790;37.572;2023-04-30T05:37:06;100021.91;;;12.95;49.63
20228;BME280;12195;55.790;37.572;2023-04-30T05:39:38;100019.27;;;12.95;49.36
20228;BME280;12195;55.790;37.572;2023-04-30T05:42:10;100024.97;;;13.03;49.59
20228;BME280;12195;55.790;37.572;2023-04-30T05:44:42;100023.77;;;13.09;48.80
20228;BME280;12195;55.790;37.572;2023-04-30T05:47:14;100026.97;;;13.14;48.88
20228;BME280;12195;55.790;37.572;2023-04-30T05:49:47;100031.80;;;13.21;48.38
20228;BME280;12195;55.790;37.572;2023-04-30T05:52:19;100019.66;;;13.33;48.31
20228;BME280;12195;55.790;37.572;2023-04-30T05:54:51;100026.09;;;13.43;47.29
20228;BME280;12195;55.790;37.572;2023-04-30T05:57:23;100022.11;;;13.50;46.16
20228;BME280;12195;55.790;37.572;2023-04-30T05:59:56;100019.11;;;13.56;46.45
20228;BME280;12195;55.790;37.572;2023-04-30T06:02:30;100026.63;;;13.62;45.05
20228;BME280;12195;55.790;37.572;2023-04-30T06:05:02;100029.28;;;13.76;45.09
20228;BME280;12195;55.790;37.572;2023-04-30T06:07:35;100031.70;;;13.93;44.74
20228;BME280;12195;55.790;37.572;2023-04-30T06:10:08;100027.13;;;14.23;43.09
20228;BME280;12195;55.790;37.572;2023-04-30T06:12:40;100030.37;;;14.67;42.39
20228;BME280;12195;55.790;37.572;2023-04-30T06:15:12;100035.09;;;14.88;41.28
20228;BME280;12195;55.790;37.572;2023-04-30T06:17:44;100042.08;;;15.02;41.12
20228;BME280;12195;55.790;37.572;2023-04-30T06:20:17;100038.30;;;15.18;40.29
20228;BME280;12195;55.790;37.572;2023-04-30T06:22:49;100034.53;;;15.47;40.27
20228;BME280;12195;55.790;37.572;2023-04-30T06:25:21;100029.01;;;15.75;38.92
20228;BME280;12195;55.790;37.572;2023-04-30T06:27:53;100034.15;;;16.02;39.18
20228;BME280;12195;55.790;37.572;2023-04-30T06:30:26;100025.83;;;16.19;38.56
20228;BME280;12195;55.790;37.572;2023-04-30T06:33:00;100029.67;;;16.39;37.95
20228;BME280;12195;55.790;37.572;2023-04-30T06:35:32;100035.75;;;16.64;38.00
20228;BME280;12195;55.790;37.572;2023-04-30T06:38:23;100030.94;;;16.69;37.44
20228;BME280;12195;55.790;37.572;2023-04-30T06:40:55;100034.09;;;16.74;36.32
20228;BME280;12195;55.790;37.572;2023-04-30T06:43:28;100032.02;;;16.67;36.18
20228;BME280;12195;55.790;37.572;2023-04-30T06:46:00;100032.02;;;16.67;36.18
20228;BME280;12195;55.790;37.572;2023-04-30T06:48:33;100028.78;;;16.74;36.53
20228;BME280;12195;55.790;37.572;2023-04-30T06:51:05;100020.83;;;16.74;36.17
20228;BME280;12195;55.790;37.572;2023-04-30T06:53:39;100018.28;;;16.73;35.47
20228;BME280;12195;55.790;37.572;2023-04-30T06:56:11;100015.89;;;16.70;35.29
20228;BME280;12195;55.790;37.572;2023-04-30T06:58:43;100015.72;;;16.60;34.06
20228;BME280;12195;55.790;37.572;2023-04-30T07:01:15;100000.41;;;16.40;34.44
20228;BME280;12195;55.790;37.572;2023-04-30T07:03:48;100009.14;;;16.42;34.38
20228;BME280;12195;55.790;37.572;2023-04-30T07:06:22;100002.62;;;16.46;34.55
20228;BME280;12195;55.790;37.572;2023-04-30T07:08:55;99997.48;;;16.56;33.39
20228;BME280;12195;55.790;37.572;2023-04-30T07:11:28;99991.38;;;16.66;33.00
20228;BME280;12195;55.790;37.572;2023-04-30T07:14:01;99984.71;;;16.84;33.25
20228;BME280;12195;55.790;37.572;2023-04-30T07:16:33;99972.91;;;16.99;32.54
20228;BME280;12195;55.790;37.572;2023-04-30T07:19:05;99981.91;;;17.20;32.67
20228;BME280;12195;55.790;37.572;2023-04-30T07:21:38;99982.16;;;17.28;31.53
20228;BME280;12195;55.790;37.572;2023-04-30T07:24:10;99982.87;;;17.30;31.34
20228;BME280;12195;55.790;37.572;2023-04-30T07:26:42;99981.55;;;17.36;31.93
20228;BME280;12195;55.790;37.572;2023-04-30T07:29:14;99972.02;;;17.33;30.17
20228;BME280;12195;55.790;37.572;2023-04-30T07:31:48;99974.30;;;17.38;30.32
20228;BME280;12195;55.790;37.572;2023-04-30T07:34:20;99972.95;;;17.32;29.87
20228;BME280;12195;55.790;37.572;2023-04-30T07:36:53;99965.63;;;17.36;30.53
20228;BME280;12195;55.790;37.572;2023-04-30T07:39:25;99957.77;;;17.34;29.76
20228;BME280;12195;55.790;37.572;2023-04-30T07:41:57;99955.61;;;17.28;29.73
20228;BME280;12195;55.790;37.572;2023-04-30T07:44:30;99957.28;;;17.18;29.72
20228;BME280;12195;55.790;37.572;2023-04-30T07:47:02;99942.44;;;17.16;29.65
20228;BME280;12195;55.790;37.572;2023-04-30T07:49:34;99950.05;;;17.20;29.47
20228;BME280;12195;55.790;37.572;2023-04-30T07:52:06;99932.44;;;17.30;29.60
20228;BME280;12195;55.790;37.572;2023-04-30T07:54:40;99930.75;;;17.29;29.56
20228;BME280;12195;55.790;37.572;2023-04-30T07:57:13;99916.86;;;17.37;29.41
20228;BME280;12195;55.790;37.572;2023-04-30T07:59:45;99902.30;;;17.53;29.85
20228;BME280;12195;55.790;37.572;2023-04-30T08:02:19;99897.91;;;17.74;29.78
20228;BME280;12195;55.790;37.572;2023-04-30T08:04:51;99893.41;;;17.86;29.29
20228;BME280;12195;55.790;37.572;2023-04-30T08:07:23;99884.34;;;17.88;28.46
20228;BME280;12195;55.790;37.572;2023-04-30T08:09:56;99881.44;;;17.91;28.77
20228;BME280;12195;55.790;37.572;2023-04-30T08:12:28;99876.37;;;17.88;29.03
20228;BME280;12195;55.790;37.572;2023-04-30T08:15:03;99874.34;;;17.81;29.15
20228;BME280;12195;55.790;37.572;2023-04-30T08:17:35;99872.27;;;17.84;29.10
20228;BME280;12195;55.790;37.572;2023-04-30T08:20:08;99861.41;;;17.87;28.81
20228;BME280;12195;55.790;37.572;2023-04-30T08:22:41;99856.33;;;17.84;29.34
20228;BME280;12195;55.790;37.572;2023-04-30T08:25:13;99855.63;;;17.82;29.45
20228;BME280;12195;55.790;37.572;2023-04-30T08:27:46;99845.95;;;17.81;29.58
20228;BME280;12195;55.790;37.572;2023-04-30T08:30:18;99844.02;;;17.83;29.36
20228;BME280;12195;55.790;37.572;2023-04-30T08:32:50;99832.11;;;17.67;29.09
20228;BME280;12195;55.790;37.572;2023-04-30T08:35:24;99823.09;;;17.58;29.24
20228;BME280;12195;55.790;37.572;2023-04-30T08:37:56;99827.55;;;17.58;29.07
20228;BME280;12195;55.790;37.572;2023-04-30T08:40:30;99822.14;;;17.48;29.58
20228;BME280;12195;55.790;37.572;2023-04-30T08:43:07;99822.14;;;17.48;29.64
20228;BME280;12195;55.790;37.572;2023-04-30T08:45:39;99818.27;;;17.52;30.01
20228;BME280;12195;55.790;37.572;2023-04-30T08:48:12;99817.17;;;17.55;29.55
20228;BME280;12195;55.790;37.572;2023-04-30T08:50:46;99817.77;;;17.69;29.95
20228;BME280;12195;55.790;37.572;2023-04-30T08:53:20;99822.22;;;17.69;29.56
20228;BME280;12195;55.790;37.572;2023-04-30T08:55:53;99819.05;;;17.75;29.89
20228;BME280;12195;55.790;37.572;2023-04-30T08:58:25;99798.07;;;17.72;29.77
20228;BME280;12195;55.790;37.572;2023-04-30T09:00:58;99807.16;;;17.58;30.38
20228;BME280;12195;55.790;37.572;2023-04-30T09:03:30;99797.66;;;17.45;30.38
20228;BME280;12195;55.790;37.572;2023-04-30T09:06:03;99794.86;;;17.35;30.71
20228;BME280;12195;55.790;37.572;2023-04-30T09:08:43;99786.95;;;17.24;30.76
20228;BME280;12195;55.790;37.572;2023-04-30T09:11:22;99787.19;;;17.21;30.97
20228;BME280;12195;55.790;37.572;2023-04-30T09:13:56;99778.64;;;17.07;31.64
20228;BME280;12195;55.790;37.572;2023-04-30T09:16:43;99776.97;;;16.95;32.69
20228;BME280;12195;55.790;37.572;2023-04-30T09:19:03;99768.03;;;16.85;32.79
20228;BME280;12195;55.790;37.572;2023-04-30T09:21:36;99757.06;;;16.78;34.88
20228;BME280;12195;55.790;37.572;2023-04-30T09:24:09;99753.70;;;16.76;34.25
20228;BME280;12195;55.790;37.572;2023-04-30T09:26:42;99751.77;;;16.78;34.26
20228;BME280;12195;55.790;37.572;2023-04-30T09:29:16;99752.62;;;16.79;33.43
20228;BME280;12195;55.790;37.572;2023-04-30T09:31:48;99750.83;;;16.79;33.19
20228;BME280;12195;55.790;37.572;2023-04-30T09:34:29;99747.31;;;16.68;34.08
20228;BME280;12195;55.790;37.572;2023-04-30T09:36:57;99738.88;;;16.63;34.73
20228;BME280;12195;55.790;37.572;2023-04-30T09:39:29;99740.94;;;16.59;33.85
20228;BME280;12195;55.790;37.572;2023-04-30T09:42:09;99730.81;;;16.64;33.89
20228;BME280;12195;55.790;37.572;2023-04-30T09:44:42;99728.02;;;16.77;34.10
20228;BME280;12195;55.790;37.572;2023-04-30T09:47:16;99709.44;;;16.88;33.88
20228;BME280;12195;55.790;37.572;2023-04-30T09:49:51;99706.90;;;16.97;33.21
20228;BME280;12195;55.790;37.572;2023-04-30T09:52:24;99705.92;;;16.98;32.84
20228;BME280;12195;55.790;37.572;2023-04-30T09:54:56;99704.48;;;16.94;32.72
20228;BME280;12195;55.790;37.572;2023-04-30T09:57:30;99709.09;;;16.92;32.98
20228;BME280;12195;55.790;37.572;2023-04-30T10:00:04;99696.77;;;16.91;32.81
20228;BME280;12195;55.790;37.572;2023-04-30T10:02:37;99700.92;;;17.27;32.74
20228;BME280;12195;55.790;37.572;2023-04-30T10:05:10;99699.06;;;16.96;32.85
20228;BME280;12195;55.790;37.572;2023-04-30T10:07:43;99702.34;;;16.88;33.44
20228;BME280;12195;55.790;37.572;2023-04-30T10:10:15;99695.13;;;16.79;33.16
20228;BME280;12195;55.790;37.572;2023-04-30T10:12:50;99693.42;;;16.78;33.20
20228;BME280;12195;55.790;37.572;2023-04-30T10:15:29;99667.17;;;16.75;33.59
20228;BME280;12195;55.790;37.572;2023-04-30T10:18:10;99692.67;;;16.87;33.44
20228;BME280;12195;55.790;37.572;2023-04-30T10:20:44;99692.90;;;16.95;33.71
20228;BME280;12195;55.790;37.572;2023-04-30T10:23:18;99693.63;;;16.97;33.31
20228;BME280;12195;55.790;37.572;2023-04-30T10:25:52;99688.80;;;16.91;32.49
20228;BME280;12195;55.790;37.572;2023-04-30T10:28:25;99695.60;;;16.73;32.06
20228;BME280;12195;55.790;37.572;2023-04-30T10:30:58;99695.60;;;16.73;32.06
20228;BME280;12195;55.790;37.572;2023-04-30T10:33:57;99694.05;;;16.60;31.76
20228;BME280;12195;55.790;37.572;2023-04-30T10:36:32;99700.20;;;16.49;32.65
20228;BME280;12195;55.790;37.572;2023-04-30T10:39:03;99701.98;;;16.38;31.93
20228;BME280;12195;55.790;37.572;2023-04-30T10:41:36;99705.35;;;16.29;31.94
20228;BME280;12195;55.790;37.572;2023-04-30T10:44:08;99701.96;;;16.27;32.05
20228;BME280;12195;55.790;37.572;2023-04-30T10:46:41;99706.55;;;16.25;32.29
20228;BME280;12195;55.790;37.572;2023-04-30T10:49:13;99697.02;;;16.33;32.40
20228;BME280;12195;55.790;37.572;2023-04-30T10:51:47;99690.29;;;16.40;32.43
20228;BME280;12195;55.790;37.572;2023-04-30T10:54:26;99692.86;;;16.53;32.36
20228;BME280;12195;55.790;37.572;2023-04-30T10:57:14;99691.62;;;16.68;31.62
20228;BME280;12195;55.790;37.572;2023-04-30T10:59:53;99692.95;;;16.73;31.03
20228;BME280;12195;55.790;37.572;2023-04-30T11:02:37;99693.53;;;16.77;30.99
20228;BME280;12195;55.790;37.572;2023-04-30T11:05:12;99695.13;;;16.79;31.27
20228;BME280;12195;55.790;37.572;2023-04-30T11:07:56;99695.33;;;16.87;31.17
20228;BME280;12195;55.790;37.572;2023-04-30T11:10:33;99693.40;;;17.00;31.76
20228;BME280;12195;55.790;37.572;2023-04-30T11:13:06;99699.73;;;17.20;31.19
20228;BME280;12195;55.790;37.572;2023-04-30T11:15:41;99710.66;;;17.37;31.07
20228;BME280;12195;55.790;37.572;2023-04-30T11:18:14;99700.33;;;17.55;30.54
20228;BME280;12195;55.790;37.572;2023-04-30T11:20:50;99693.90;;;17.89;30.41
20228;BME280;12195;55.790;37.572;2023-04-30T11:23:24;99696.09;;;18.04;29.27
20228;BME280;12195;55.790;37.572;2023-04-30T11:26:00;99686.94;;;18.18;29.46
20228;BME280;12195;55.790;37.572;2023-04-30T11:28:34;99664.74;;;18.28;28.97
20228;BME280;12195;55.790;37.572;2023-04-30T11:31:07;99659.55;;;18.47;29.26
20228;BME280;12195;55.790;37.572;2023-04-30T11:33:39;99659.75;;;18.74;28.97
20228;BME280;12195;55.790;37.572;2023-04-30T11:36:13;99652.36;;;18.87;28.47
20228;BME280;12195;55.790;37.572;2023-04-30T11:38:46;99646.50;;;18.93;28.52
20228;BME280;12195;55.790;37.572;2023-04-30T11:41:20;99648.95;;;19.44;29.06
20228;BME280;12195;55.790;37.572;2023-04-30T11:43:53;99632.91;;;19.06;28.47
20228;BME280;12195;55.790;37.572;2023-04-30T11:46:27;99627.72;;;19.04;28.62
20228;BME280;12195;55.790;37.572;2023-04-30T11:49:00;99623.23;;;18.95;28.64
20228;BME280;12195;55.790;37.572;2023-04-30T11:51:35;99615.94;;;18.78;28.61
20228;BME280;12195;55.790;37.572;2023-04-30T11:54:08;99613.84;;;18.91;28.91
20228;BME280;12195;55.790;37.572;2023-04-30T11:56:44;99607.15;;;19.06;29.08
20228;BME280;12195;55.790;37.572;2023-04-30T11:59:14;99606.72;;;19.20;28.53
20228;BME280;12195;55.790;37.572;2023-04-30T12:01:47;99600.16;;;19.24;28.44
20228;BME280;12195;55.790;37.572;2023-04-30T12:04:19;99608.97;;;19.15;28.78
20228;BME280;12195;55.790;37.572;2023-04-30T12:06:51;99599.73;;;19.00;28.92
20228;BME280;12195;55.790;37.572;2023-04-30T12:09:23;99592.71;;;18.80;28.96
20228;BME280;12195;55.790;37.572;2023-04-30T12:11:55;99596.89;;;18.73;29.54
20228;BME280;12195;55.790;37.572;2023-04-30T12:14:28;99588.78;;;18.75;29.31
20228;BME280;12195;55.790;37.572;2023-04-30T12:17:02;99590.73;;;18.82;29.58
20228;BME280;12195;55.790;37.572;2023-04-30T12:19:35;99592.30;;;18.94;29.46
20228;BME280;12195;55.790;37.572;2023-04-30T12:22:07;99575.64;;;18.92;28.97
20228;BME280;12195;55.790;37.572;2023-04-30T12:24:39;99578.44;;;18.91;29.25
20228;BME280;12195;55.790;37.572;2023-04-30T12:27:14;99581.34;;;18.78;29.18
20228;BME280;12195;55.790;37.572;2023-04-30T12:29:46;99577.72;;;18.70;29.53
20228;BME280;12195;55.790;37.572;2023-04-30T12:32:23;99566.31;;;18.49;29.60
20228;BME280;12195;55.790;37.572;2023-04-30T12:34:59;99583.35;;;18.37;30.20
20228;BME280;12195;55.790;37.572;2023-04-30T12:37:32;99585.45;;;18.03;30.40
20228;BME280;12195;55.790;37.572;2023-04-30T12:40:06;99580.84;;;17.75;31.10
20228;BME280;12195;55.790;37.572;2023-04-30T12:42:40;99585.64;;;17.40;31.21
20228;BME280;12195;55.790;37.572;2023-04-30T12:45:13;99589.86;;;17.11;31.92
20228;BME280;12195;55.790;37.572;2023-04-30T12:47:45;99595.58;;;17.27;31.67
20228;BME280;12195;55.790;37.572;2023-04-30T12:50:20;99599.33;;;16.62;32.49
20228;BME280;12195;55.790;37.572;2023-04-30T12:52:53;99596.47;;;16.43;33.56
20228;BME280;12195;55.790;37.572;2023-04-30T12:55:25;99600.17;;;16.29;33.59
20228;BME280;12195;55.790;37.572;2023-04-30T12:58:03;99595.49;;;16.11;33.74
20228;BME280;12195;55.790;37.572;2023-04-30T13:00:52;99598.61;;;15.82;34.15
20228;BME280;12195;55.790;37.572;2023-04-30T13:03:20;99598.61;;;15.82;34.15
20228;BME280;12195;55.790;37.572;2023-04-30T13:05:53;99590.91;;;15.68;34.56
20228;BME280;12195;55.790;37.572;2023-04-30T13:08:25;99559.13;;;15.46;35.05
20228;BME280;12195;55.790;37.572;2023-04-30T13:10:57;99579.70;;;15.54;35.82
20228;BME280;12195;55.790;37.572;2023-04-30T13:13:29;99574.03;;;15.47;35.54
20228;BME280;12195;55.790;37.572;2023-04-30T13:16:02;99574.03;;;15.47;35.54
20228;BME280;12195;55.790;37.572;2023-04-30T13:18:35;99574.89;;;15.48;35.99
20228;BME280;12195;55.790;37.572;2023-04-30T13:21:07;99571.61;;;15.44;35.72
20228;BME280;12195;55.790;37.572;2023-04-30T13:23:41;99558.91;;;15.26;35.94
20228;BME280;12195;55.790;37.572;2023-04-30T13:26:14;99558.91;;;15.26;35.94
20228;BME280;12195;55.790;37.572;2023-04-30T13:28:47;99575.01;;;15.23;36.29
20228;BME280;12195;55.790;37.572;2023-04-30T13:31:20;99579.09;;;15.16;36.43